Time;durP1;ratioP1;P1;durP2;ratioP2;P2;SDS_P1;SDS_P2;PMS_P1;PMS_P2;Temp;Humidity;BMP_temperature;BMP_pressure;BME280_temperature;BME280_humidity;BME280_pressure;Samples;Min_cycle;Max_cycle;Signal;HPM_P1;HPM_P2
2021/08/19 00:01:20;;;;;;;7.60;4.05;;;;;;;14.99;97.96;99096.11;1658138;86;20855;-76
2021/08/19 00:03:46;;;;;;;9.38;3.85;;;;;;;14.94;97.88;99097.17;1658460;86;20935;-76
2021/08/19 00:06:13;;;;;;;9.80;4.40;;;;;;;14.92;98.22;99102.25;1658183;86;20982;-76
2021/08/19 00:08:42;;;;;;;6.17;4.05;;;;;;;14.91;98.44;99108.94;1658280;85;20935;-76
2021/08/19 00:11:09;;;;;;;15.15;4.05;;;;;;;14.87;98.41;99113.57;1658327;86;21477;-76
2021/08/19 00:13:38;;;;;;;9.68;3.80;;;;;;;14.88;98.59;99111.03;1659935;84;20926;-77
2021/08/19 00:16:09;;;;;;;6.35;3.85;;;;;;;14.91;98.52;99103.99;1684027;85;20956;-77
2021/08/19 00:18:36;;;;;;;5.53;4.00;;;;;;;14.91;98.62;99102.03;1683913;85;20944;-76
2021/08/19 00:21:05;;;;;;;6.75;4.35;;;;;;;14.90;98.53;99108.72;1684044;85;21012;-75
2021/08/19 00:23:35;;;;;;;6.15;3.90;;;;;;;14.86;98.49;99115.53;1683941;85;21167;-74
2021/08/19 00:26:04;;;;;;;7.80;4.65;;;;;;;14.82;98.43;99129.03;1684201;85;21530;-74
2021/08/19 00:28:31;;;;;;;9.03;4.37;;;;;;;14.79;98.51;99142.17;1683983;85;20952;-76
2021/08/19 00:31:00;;;;;;;8.33;4.92;;;;;;;14.77;98.39;99150.01;1683895;85;20904;-77
2021/08/19 00:33:28;;;;;;;7.28;3.42;;;;;;;14.77;98.34;99155.53;1683975;85;20928;-75
2021/08/19 00:35:57;;;;;;;6.67;3.98;;;;;;;14.77;98.42;99167.97;1685120;85;21420;-74
2021/08/19 00:38:23;;;;;;;9.65;4.65;;;;;;;14.77;98.65;99170.16;1684008;85;20995;-75
2021/08/19 00:40:50;;;;;;;10.85;4.40;;;;;;;14.77;99.07;99167.39;1683960;85;20943;-75
2021/08/19 00:43:19;;;;;;;7.75;4.80;;;;;;;14.77;99.21;99166.01;1683878;83;20920;-75
2021/08/19 00:45:47;;;;;;;9.25;3.77;;;;;;;14.80;99.35;99165.88;1683925;85;20940;-76
2021/08/19 00:48:15;;;;;;;9.18;4.28;;;;;;;14.78;99.32;99158.52;1683946;85;20951;-76
2021/08/19 00:50:43;;;;;;;8.38;4.45;;;;;;;14.76;99.37;99158.07;1684048;85;20986;-77
2021/08/19 00:53:11;;;;;;;9.73;4.58;;;;;;;14.72;99.54;99153.02;1684148;85;20872;-76
2021/08/19 00:55:39;;;;;;;8.05;4.00;;;;;;;14.66;99.84;99146.14;1684048;85;20877;-74
2021/08/19 00:58:07;;;;;;;14.30;4.20;;;;;;;14.61;100.00;99154.11;1684143;85;20900;-74
2021/08/19 01:00:34;;;;;;;16.15;4.22;;;;;;;14.61;100.00;99156.06;1684145;85;21097;-77
2021/08/19 01:03:01;;;;;;;9.05;4.45;;;;;;;14.61;100.00;99148.58;1684346;85;20857;-75
2021/08/19 01:05:30;;;;;;;5.90;4.40;;;;;;;14.63;100.00;99145.47;1684167;85;20892;-76
2021/08/19 01:07:59;;;;;;;9.95;4.30;;;;;;;14.62;100.00;99138.33;1684290;85;20940;-74
2021/08/19 01:10:29;;;;;;;6.40;4.10;;;;;;;14.64;100.00;99137.41;1684409;85;20924;-74
2021/08/19 01:12:56;;;;;;;8.08;4.42;;;;;;;14.62;100.00;99140.52;1684385;85;21064;-75
2021/08/19 01:15:24;;;;;;;5.83;4.30;;;;;;;14.60;100.00;99140.06;1685272;85;20959;-75
2021/08/19 01:17:58;;;;;;;10.90;4.60;;;;;;;14.57;100.00;99152.39;1689739;85;21034;-75
2021/08/19 01:20:29;;;;;;;8.98;4.53;;;;;;;14.56;100.00;99164.59;1689824;85;20903;-74
2021/08/19 01:22:57;;;;;;;8.58;4.08;;;;;;;14.52;100.00;99169.45;1689785;85;20991;-73
2021/08/19 01:25:25;;;;;;;6.92;4.62;;;;;;;14.52;100.00;99170.02;1689987;85;21796;-77
2021/08/19 01:27:54;;;;;;;14.18;4.47;;;;;;;14.51;100.00;99164.27;1689728;84;20959;-78
2021/08/19 01:30:21;;;;;;;9.85;4.20;;;;;;;14.48;100.00;99164.39;1690109;85;20935;-78
2021/08/19 01:32:48;;;;;;;9.33;4.20;;;;;;;14.48;100.00;99156.11;1689748;85;21415;-77
2021/08/19 01:35:22;;;;;;;5.85;4.45;;;;;;;14.47;100.00;99140.69;1689834;84;21542;-77
2021/08/19 01:37:49;;;;;;;7.15;4.30;;;;;;;14.46;100.00;99126.66;1689396;85;21861;-76
2021/08/19 01:40:17;;;;;;;7.65;4.33;;;;;;;14.45;100.00;99118.14;1689699;85;21447;-75
2021/08/19 01:42:46;;;;;;;8.18;4.33;;;;;;;14.43;100.00;99115.55;1689755;83;21567;-78
2021/08/19 01:45:16;;;;;;;6.35;4.12;;;;;;;14.42;100.00;99115.31;1689947;85;21585;-76
2021/08/19 01:47:46;;;;;;;7.30;4.50;;;;;;;14.40;100.00;99112.88;1689843;85;20908;-72
2021/08/19 01:50:15;;;;;;;10.10;4.92;;;;;;;14.37;100.00;99131.52;1689709;85;21044;-72
2021/08/19 01:52:42;;;;;;;12.35;4.25;;;;;;;14.34;100.00;99126.70;1689929;85;20903;-72
2021/08/19 01:55:12;;;;;;;6.22;3.87;;;;;;;14.32;100.00;99130.97;1689822;85;21447;-72
2021/08/19 01:57:39;;;;;;;7.80;4.05;;;;;;;14.29;100.00;99124.19;1689991;85;21439;-71
2021/08/19 02:00:07;;;;;;;7.83;4.10;;;;;;;14.26;100.00;99116.61;1689772;85;20996;-71
2021/08/19 02:02:38;;;;;;;8.43;4.78;;;;;;;14.21;100.00;99120.99;1689662;85;20894;-72
2021/08/19 02:05:09;;;;;;;7.47;4.40;;;;;;;14.16;100.00;99117.90;1689742;85;20947;-72
2021/08/19 02:07:38;;;;;;;8.20;4.22;;;;;;;14.13;100.00;99115.03;1689733;85;21459;-72
2021/08/19 02:10:07;;;;;;;8.33;4.00;;;;;;;14.09;100.00;99115.50;1689888;85;21502;-72
2021/08/19 02:12:34;;;;;;;9.50;4.25;;;;;;;14.07;100.00;99106.77;1689734;85;20951;-72
2021/08/19 02:15:01;;;;;;;8.48;4.67;;;;;;;14.09;100.00;99108.61;1689812;85;21866;-72
2021/08/19 02:17:27;;;;;;;7.70;4.25;;;;;;;14.07;100.00;99110.91;1689531;85;20931;-72
2021/08/19 02:19:54;;;;;;;11.25;4.72;;;;;;;14.00;100.00;99105.98;1689792;85;20947;-72
2021/08/19 02:22:22;;;;;;;8.68;5.03;;;;;;;13.99;100.00;99098.05;1689738;85;21551;-72
2021/08/19 02:24:51;;;;;;;10.78;4.50;;;;;;;14.01;100.00;99104.83;1689884;85;20911;-73
2021/08/19 02:27:18;;;;;;;6.95;4.65;;;;;;;14.07;100.00;99109.53;1689768;85;21149;-73
2021/08/19 02:29:44;;;;;;;7.35;5.37;;;;;;;14.07;100.00;99108.16;1689709;85;21514;-74
2021/08/19 02:32:11;;;;;;;8.40;5.03;;;;;;;14.06;100.00;99108.73;1689722;85;20916;-73
2021/08/19 02:34:37;;;;;;;7.90;4.95;;;;;;;14.07;100.00;99110.91;1689767;85;20915;-73
2021/08/19 02:37:04;;;;;;;8.73;5.75;;;;;;;14.09;100.00;99113.55;1689829;85;20948;-72
2021/08/19 02:39:32;;;;;;;10.10;6.17;;;;;;;14.10;100.00;99120.68;1689840;85;21074;-74
2021/08/19 02:41:59;;;;;;;8.08;5.28;;;;;;;14.12;100.00;99116.19;1689733;83;20935;-79
2021/08/19 02:44:25;;;;;;;8.58;5.70;;;;;;;14.13;100.00;99111.70;1689598;85;20892;-78
2021/08/19 02:46:52;;;;;;;8.00;4.92;;;;;;;14.13;100.00;99108.13;1689700;85;20935;-74
2021/08/19 02:49:18;;;;;;;6.20;5.60;;;;;;;14.14;100.00;99117.45;1689486;85;20900;-74
2021/08/19 02:51:46;;;;;;;7.72;5.80;;;;;;;14.14;100.00;99130.44;1689194;85;21151;-76
2021/08/19 02:54:13;;;;;;;12.50;5.60;;;;;;;14.15;100.00;99134.23;1689650;83;20916;-74
2021/08/19 02:56:41;;;;;;;13.88;5.45;;;;;;;14.17;100.00;99146.31;1689285;85;20903;-74
2021/08/19 02:59:07;;;;;;;10.95;5.30;;;;;;;14.18;100.00;99147.91;1689724;85;20939;-75
2021/08/19 03:01:34;;;;;;;9.60;5.60;;;;;;;14.21;100.00;99157.69;1688238;85;20948;-72
2021/08/19 03:04:01;;;;;;;10.85;6.60;;;;;;;14.20;100.00;99154.70;1688826;84;21131;-75
2021/08/19 03:06:28;;;;;;;10.95;6.15;;;;;;;14.21;100.00;99161.02;1689503;85;20960;-73
2021/08/19 03:08:54;;;;;;;7.62;5.78;;;;;;;14.20;100.00;99160.80;1689731;83;20896;-74
2021/08/19 03:11:25;;;;;;;10.20;5.33;;;;;;;14.21;100.00;99172.06;1689579;83;21562;-74
2021/08/19 03:13:53;;;;;;;13.13;5.50;;;;;;;14.20;100.00;99176.78;1694277;84;21044;-75
2021/08/19 03:16:22;;;;;;;9.18;5.70;;;;;;;14.21;100.00;99172.87;1699382;83;20934;-77
2021/08/19 03:18:53;;;;;;;9.45;5.72;;;;;;;14.24;100.00;99174.12;1707780;84;20898;-75
2021/08/19 03:21:21;;;;;;;8.08;5.17;;;;;;;14.26;100.00;99171.83;1708298;83;21382;-79
2021/08/19 03:23:50;;;;;;;6.78;5.17;;;;;;;14.27;100.00;99173.43;1702109;83;20917;-75
2021/08/19 03:26:17;;;;;;;9.73;5.05;;;;;;;14.27;100.00;99173.43;1703211;84;21057;-73
2021/08/19 03:28:44;;;;;;;8.93;5.35;;;;;;;14.30;100.00;99176.07;1703268;84;21123;-74
2021/08/19 03:31:12;;;;;;;15.93;5.72;;;;;;;14.31;100.00;99178.48;1703207;83;21519;-73
2021/08/19 03:33:40;;;;;;;7.47;5.30;;;;;;;14.34;100.00;99183.31;1703280;84;20867;-73
2021/08/19 03:36:06;;;;;;;8.83;5.58;;;;;;;14.37;100.00;99175.70;1693733;84;20938;-70
2021/08/19 03:38:33;;;;;;;9.15;5.17;;;;;;;14.41;100.00;99181.33;1684112;85;21007;-74
2021/08/19 03:41:00;;;;;;;7.50;4.65;;;;;;;14.45;100.00;99183.05;1684034;85;23328;-75
2021/08/19 03:43:27;;;;;;;6.97;4.42;;;;;;;14.49;100.00;99190.86;1683936;83;20900;-74
2021/08/19 03:45:54;;;;;;;6.58;4.65;;;;;;;14.55;100.00;99191.42;1683967;85;20939;-73
2021/08/19 03:48:21;;;;;;;9.20;4.87;;;;;;;14.58;100.00;99193.48;1683831;85;21058;-75
2021/08/19 03:50:48;;;;;;;8.90;6.12;;;;;;;14.58;100.00;99194.86;1682628;83;20992;-73
2021/08/19 03:53:15;;;;;;;6.97;4.97;;;;;;;14.58;100.00;99189.34;1692596;83;21988;-72
2021/08/19 03:55:41;;;;;;;10.10;5.42;;;;;;;14.59;100.00;99194.28;1687442;84;21517;-74
2021/08/19 03:58:09;;;;;;;8.08;4.85;;;;;;;14.59;100.00;99192.33;1692944;83;21025;-73
2021/08/19 04:00:37;;;;;;;8.20;4.87;;;;;;;14.61;100.00;99196.12;1692830;83;21081;-72
2021/08/19 04:03:04;;;;;;;9.53;5.87;;;;;;;14.62;100.00;99194.39;1681217;84;21143;-74
2021/08/19 04:05:30;;;;;;;6.47;5.28;;;;;;;14.63;100.00;99191.05;1688961;83;21209;-76
2021/08/19 04:07:57;;;;;;;10.45;6.15;;;;;;;14.64;100.00;99195.41;1692369;83;20969;-74
2021/08/19 04:10:24;;;;;;;14.65;5.65;;;;;;;14.66;100.00;99204.16;1687290;83;21094;-73
2021/08/19 04:12:51;;;;;;;9.30;5.80;;;;;;;14.70;100.00;99207.83;1697359;83;21092;-73
2021/08/19 04:15:17;;;;;;;11.38;5.05;;;;;;;14.72;100.00;99205.52;1693471;83;21064;-73
2021/08/19 04:17:45;;;;;;;10.63;6.17;;;;;;;14.77;100.00;99206.65;1706619;83;21009;-73
2021/08/19 04:20:13;;;;;;;8.95;5.37;;;;;;;14.80;100.00;99201.80;1697648;83;21008;-74
2021/08/19 04:22:41;;;;;;;8.80;6.03;;;;;;;14.84;100.00;99198.56;1693828;84;21614;-77
2021/08/19 04:25:11;;;;;;;11.68;6.12;;;;;;;14.84;100.00;99202.70;1620824;88;20905;-75
2021/08/19 04:27:38;;;;;;;11.08;6.33;;;;;;;14.83;100.00;99206.05;1648828;87;20944;-74
2021/08/19 04:30:07;;;;;;;10.65;6.80;;;;;;;14.85;100.00;99209.84;1637037;87;21940;-74
2021/08/19 04:32:34;;;;;;;11.50;6.55;;;;;;;14.86;100.00;99205.92;1636863;87;21019;-73
2021/08/19 04:35:00;;;;;;;11.03;6.40;;;;;;;14.86;100.00;99200.39;1637113;87;21074;-75
2021/08/19 04:37:27;;;;;;;12.37;6.40;;;;;;;14.88;100.00;99202.23;1636915;87;20928;-74
2021/08/19 04:39:54;;;;;;;10.80;6.37;;;;;;;14.92;100.00;99203.13;1653267;86;20937;-73
2021/08/19 04:42:20;;;;;;;11.48;6.90;;;;;;;14.95;100.00;99200.24;1651164;84;21145;-72
2021/08/19 04:44:47;;;;;;;9.85;6.83;;;;;;;14.99;100.00;99197.00;1718685;83;20936;-74
2021/08/19 04:47:14;;;;;;;11.75;6.70;;;;;;;15.02;100.00;99194.30;1683780;85;20953;-74
2021/08/19 04:49:40;;;;;;;13.30;6.95;;;;;;;15.07;100.00;99192.66;1683920;85;20953;-77
2021/08/19 04:52:07;;;;;;;16.05;8.45;;;;;;;15.08;100.00;99191.50;1644398;85;20928;-75
2021/08/19 04:54:34;;;;;;;16.55;8.58;;;;;;;15.13;100.00;99191.25;1659465;85;21119;-73
2021/08/19 04:57:04;;;;;;;16.40;9.63;;;;;;;15.21;100.00;99196.39;1718159;83;21425;-74
2021/08/19 04:59:36;;;;;;;17.07;8.05;;;;;;;15.23;100.00;99194.07;1704706;83;20977;-74
2021/08/19 05:02:14;;;;;;;12.63;8.55;;;;;;;15.25;100.00;99200.63;1695097;83;21017;-75
2021/08/19 05:04:42;;;;;;;17.07;8.38;;;;;;;15.28;100.00;99201.30;1699934;83;21063;-81
2021/08/19 05:07:14;;;;;;;12.07;6.92;;;;;;;15.38;100.00;99203.55;1664018;85;21075;-73
2021/08/19 05:09:44;;;;;;;18.00;7.95;;;;;;;15.41;100.00;99203.64;1686542;85;21077;-72
2021/08/19 05:12:15;;;;;;;12.75;7.62;;;;;;;15.47;100.00;99210.51;1684467;84;21052;-80
2021/08/19 05:14:46;;;;;;;15.78;9.23;;;;;;;15.51;100.00;99200.92;1683824;84;20942;-71
2021/08/19 05:17:15;;;;;;;10.28;7.70;;;;;;;15.56;100.00;99196.50;1676923;85;21021;-77
2021/08/19 05:19:48;;;;;;;13.03;8.00;;;;;;;15.68;100.00;99187.31;1680530;85;21960;-75
2021/08/19 05:22:16;;;;;;;16.48;7.10;;;;;;;15.78;100.00;99190.92;1680306;85;21037;-76
2021/08/19 05:24:48;;;;;;;14.15;9.00;;;;;;;15.86;99.94;99198.23;1662226;85;20933;-75
2021/08/19 05:27:18;;;;;;;12.78;9.68;;;;;;;15.91;99.17;99181.34;1661063;83;21571;-76
2021/08/19 05:29:48;;;;;;;16.10;10.35;;;;;;;15.97;98.95;99180.49;1658138;83;21544;-71
2021/08/19 05:32:15;;;;;;;18.00;10.28;;;;;;;16.02;97.20;99185.75;1678820;85;21139;-73
2021/08/19 05:34:49;;;;;;;12.80;10.05;;;;;;;15.98;96.18;99187.63;1679688;85;21113;-72
2021/08/19 05:37:24;;;;;;;16.62;9.30;;;;;;;15.94;95.63;99192.28;1679242;85;21045;-74
2021/08/19 05:39:54;;;;;;;12.47;9.00;;;;;;;15.87;95.34;99190.73;1677124;85;21531;-74
2021/08/19 05:42:23;;;;;;;15.40;9.98;;;;;;;15.81;95.58;99186.85;1678948;84;21622;-74
2021/08/19 05:44:54;;;;;;;13.62;8.73;;;;;;;15.75;96.13;99179.98;1679667;85;21847;-74
2021/08/19 05:47:29;;;;;;;13.35;9.35;;;;;;;15.75;96.54;99178.60;1679733;85;21152;-80
2021/08/19 05:49:56;;;;;;;12.20;8.68;;;;;;;15.76;96.99;99176.64;1679203;85;21551;-76
2021/08/19 05:52:28;;;;;;;20.45;10.45;;;;;;;15.75;96.50;99179.18;1679632;85;20969;-74
2021/08/19 05:55:03;;;;;;;15.08;9.40;;;;;;;15.71;96.04;99179.09;1679299;85;21551;-75
2021/08/19 05:57:30;;;;;;;;;;;;;;;15.72;96.41;99175.16;1681247;85;21189;-76
2021/08/19 06:00:05;;;;;;;14.93;9.98;;;;;;;15.76;96.81;99177.44;1681024;85;20175;-76
2021/08/19 06:02:38;;;;;;;12.70;10.10;;;;;;;15.83;97.12;99184.53;1677501;85;21053;-76
2021/08/19 06:05:08;;;;;;;11.53;9.15;;;;;;;15.92;96.83;99179.38;1680363;85;20973;-73
2021/08/19 06:07:40;;;;;;;14.07;9.48;;;;;;;16.04;97.33;99176.50;1684287;85;20950;-73
2021/08/19 06:10:09;;;;;;;21.05;9.95;;;;;;;16.23;97.18;99176.52;1679019;85;21722;-73
2021/08/19 06:12:44;;;;;;;23.62;9.05;;;;;;;16.42;97.41;99177.13;1691184;83;20955;-72
2021/08/19 06:15:17;;;;;;;15.93;8.30;;;;;;;16.61;97.11;99188.80;1698898;83;21043;-76
2021/08/19 06:17:49;;;;;;;10.95;7.45;;;;;;;16.80;96.85;99201.27;1703187;83;20970;-75
2021/08/19 06:20:19;;;;;;;11.97;7.17;;;;;;;16.95;94.56;99213.45;1719628;83;21085;-78
2021/08/19 06:22:52;;;;;;;11.60;7.42;;;;;;;17.05;93.23;99216.44;1660046;85;21007;-75
2021/08/19 06:25:33;;;;;;;10.70;8.03;;;;;;;17.20;92.27;99207.80;1719646;83;20974;-76
2021/08/19 06:27:54;;;;;;;16.97;6.67;;;;;;;17.44;92.89;99192.75;1679355;85;22911;-75
2021/08/19 06:30:28;;;;;;;16.00;7.30;;;;;;;17.68;90.81;99188.83;1712037;83;21051;-76
2021/08/19 06:33:00;;;;;;;13.22;6.60;;;;;;;17.84;90.30;99189.49;1691021;83;21043;-76
2021/08/19 06:35:29;;;;;;;14.00;5.95;;;;;;;17.99;89.28;99190.48;1653685;86;21195;-76
2021/08/19 06:38:00;;;;;;;11.53;5.47;;;;;;;18.07;87.10;99188.83;1683011;85;21416;-75
2021/08/19 06:40:29;;;;;;;6.70;5.17;;;;;;;18.07;86.22;99187.44;1683167;85;21110;-76
2021/08/19 06:43:07;;;;;;;6.80;5.28;;;;;;;18.08;85.30;99186.86;1683003;83;21055;-75
2021/08/19 06:45:38;;;;;;;10.98;5.55;;;;;;;18.07;84.93;99181.09;1682245;85;21597;-75
2021/08/19 06:48:08;;;;;;;8.18;5.53;;;;;;;18.05;83.71;99179.27;1682515;85;21140;-75
2021/08/19 06:50:38;;;;;;;8.45;5.42;;;;;;;18.02;85.14;99184.19;1683252;84;20971;-79
2021/08/19 06:53:11;;;;;;;8.10;4.55;;;;;;;18.02;83.59;99184.98;1682955;85;21013;-77
2021/08/19 06:55:40;;;;;;;;;;;;;;;18.04;83.83;99186.00;1685691;85;20944;-75
2021/08/19 06:58:21;;;;;;;8.78;4.72;;;;;;;18.13;82.57;99184.56;1653645;85;20095;-75
2021/08/19 07:00:49;;;;;;;8.53;4.87;;;;;;;18.25;82.24;99186.31;1682017;85;21601;-75
2021/08/19 07:03:23;;;;;;;6.22;4.58;;;;;;;18.40;82.17;99191.48;1647483;85;21017;-75
2021/08/19 07:05:55;;;;;;;6.50;3.83;;;;;;;18.46;81.25;99197.73;1645262;86;20946;-75
2021/08/19 07:08:29;;;;;;;6.58;3.75;;;;;;;18.60;80.36;99194.89;1665689;85;21953;-77
2021/08/19 07:11:00;;;;;;;6.78;4.00;;;;;;;18.69;78.93;99198.22;1664572;85;21050;-77
2021/08/19 07:13:30;;;;;;;6.60;4.00;;;;;;;18.76;78.31;99199.11;1673026;85;21165;-78
2021/08/19 07:16:03;;;;;;;6.10;3.77;;;;;;;18.84;78.48;99205.56;1667299;85;20958;-77
2021/08/19 07:18:36;;;;;;;6.92;3.77;;;;;;;18.87;77.91;99200.63;1673835;84;21067;-76
2021/08/19 07:21:09;;;;;;;12.58;4.53;;;;;;;18.89;76.59;99208.00;1654819;85;21007;-74
2021/08/19 07:23:44;;;;;;;9.38;4.20;;;;;;;18.85;76.34;99209.94;1682539;85;21023;-76
2021/08/19 07:26:33;;;;;;;8.73;4.45;;;;;;;18.82;75.34;99211.29;1677178;85;21160;-74
2021/08/19 07:28:53;;;;;;;12.98;4.80;;;;;;;18.79;75.97;99212.84;1677841;85;28071;-76
2021/08/19 07:31:25;;;;;;;10.72;3.42;;;;;;;18.80;75.91;99210.28;1682695;85;21475;-76
2021/08/19 07:33:58;;;;;;;10.08;3.42;;;;;;;18.90;76.36;99219.34;1653328;85;20921;-77
2021/08/19 07:36:27;;;;;;;10.80;3.85;;;;;;;18.94;74.94;99209.06;1681772;85;21011;-72
2021/08/19 07:39:04;;;;;;;8.73;3.67;;;;;;;19.00;74.21;99209.52;1682285;85;21592;-72
2021/08/19 07:41:39;;;;;;;8.80;3.30;;;;;;;19.11;73.31;99207.63;1661502;85;21420;-74
2021/08/19 07:44:09;;;;;;;9.65;3.42;;;;;;;19.16;70.65;99207.87;1683472;85;20904;-74
2021/08/19 07:46:42;;;;;;;14.33;4.12;;;;;;;19.15;70.69;99208.47;1662239;85;21439;-73
2021/08/19 07:49:13;;;;;;;12.20;4.20;;;;;;;19.13;70.40;99207.45;1682150;85;21435;-72
2021/08/19 07:51:54;;;;;;;12.03;3.98;;;;;;;19.18;71.05;99208.30;1655402;85;20960;-72
2021/08/19 07:54:25;;;;;;;16.35;4.83;;;;;;;19.22;71.12;99208.55;1683351;85;21031;-74
2021/08/19 07:56:55;;;;;;;11.97;4.55;;;;;;;19.29;69.53;99216.17;1682978;85;20935;-76
2021/08/19 07:59:27;;;;;;;15.83;4.67;;;;;;;19.29;69.71;99203.05;1682529;85;21030;-74
2021/08/19 08:01:59;;;;;;;11.10;4.05;;;;;;;19.29;69.61;99200.27;1682776;85;20991;-74
2021/08/19 08:04:28;;;;;;;8.60;3.70;;;;;;;19.31;69.22;99204.06;1682651;84;21150;-73
2021/08/19 08:06:58;;;;;;;19.67;4.83;;;;;;;19.29;68.90;99201.66;1672695;85;21024;-75
2021/08/19 08:09:32;;;;;;;19.40;5.90;;;;;;;19.29;68.64;99203.65;1677314;85;21571;-74
2021/08/19 08:12:05;;;;;;;11.88;4.92;;;;;;;19.34;68.82;99201.91;1673812;85;21058;-74
2021/08/19 08:14:35;;;;;;;17.90;5.03;;;;;;;19.35;69.14;99206.30;1679873;85;21067;-73
2021/08/19 08:17:09;;;;;;;17.20;6.28;;;;;;;19.38;68.92;99206.92;1673424;85;21122;-75
2021/08/19 08:19:46;;;;;;;10.13;5.05;;;;;;;19.40;68.59;99205.36;1640576;86;20991;-75
2021/08/19 08:22:15;;;;;;;12.00;5.28;;;;;;;19.39;69.90;99209.91;1662505;85;20959;-73
2021/08/19 08:24:48;;;;;;;13.72;5.03;;;;;;;19.41;69.26;99208.94;1668214;84;21023;-75
2021/08/19 08:27:18;;;;;;;16.00;4.97;;;;;;;19.42;68.26;99200.80;1661321;85;21016;-73
2021/08/19 08:29:46;;;;;;;10.18;5.15;;;;;;;19.48;68.49;99202.64;1670999;85;21225;-73
2021/08/19 08:32:17;;;;;;;16.32;6.45;;;;;;;19.59;69.06;99204.38;1667884;85;20992;-75
2021/08/19 08:34:45;;;;;;;8.93;4.62;;;;;;;19.75;69.04;99197.12;1667420;85;21071;-72
2021/08/19 08:37:13;;;;;;;14.10;5.22;;;;;;;19.93;67.90;99200.05;1670172;85;20920;-73
2021/08/19 08:39:44;;;;;;;26.15;7.40;;;;;;;19.98;67.59;99191.33;1678767;85;21020;-71
2021/08/19 08:42:16;;;;;;;9.90;5.12;;;;;;;20.04;68.82;99187.00;1598954;87;21048;-72
2021/08/19 08:44:47;;;;;;;7.45;4.85;;;;;;;20.11;67.72;99191.23;1637967;87;20916;-72
2021/08/19 08:47:19;;;;;;;7.30;5.17;;;;;;;20.06;67.57;99190.20;1634238;87;21131;-71
2021/08/19 08:49:47;;;;;;;13.03;5.47;;;;;;;19.98;69.07;99190.73;1630498;88;21054;-74
2021/08/19 08:52:23;;;;;;;9.43;5.15;;;;;;;19.90;70.69;99184.11;1625541;88;21008;-72
2021/08/19 08:54:57;;;;;;;11.45;5.20;;;;;;;19.87;71.73;99192.64;1634692;87;21012;-72
2021/08/19 08:57:27;;;;;;;8.48;5.08;;;;;;;19.86;71.48;99182.69;1604945;88;21555;-72
2021/08/19 09:00:01;;;;;;;10.53;5.40;;;;;;;19.90;71.62;99184.11;1655368;86;21566;-74
2021/08/19 09:02:29;;;;;;;7.10;5.22;;;;;;;19.99;71.40;99183.18;1654678;86;21052;-73
2021/08/19 09:05:25;;;;;;;9.35;5.72;;;;;;;20.08;71.48;99181.66;1610832;87;20955;-73
2021/08/19 09:08:05;;;;;;;11.93;5.62;;;;;;;20.23;71.13;99185.30;1635826;86;20991;-74
2021/08/19 09:10:37;;;;;;;8.75;5.45;;;;;;;20.41;73.43;99180.66;1654700;85;20952;-71
2021/08/19 09:13:16;;;;;;;10.28;5.65;;;;;;;20.61;71.65;99177.58;1654412;86;21028;-72
2021/08/19 09:15:48;;;;;;;9.40;5.42;;;;;;;20.72;70.06;99177.03;1632372;87;21138;-72
2021/08/19 09:18:38;;;;;;;10.93;5.70;;;;;;;20.75;68.39;99173.45;1644451;84;21114;-75
2021/08/19 09:21:24;;;;;;;9.30;5.55;;;;;;;20.76;69.71;99178.64;1707612;83;21034;-73
2021/08/19 09:24:15;;;;;;;9.08;5.10;;;;;;;20.88;66.59;99178.05;1720737;83;20957;-74
2021/08/19 09:26:45;;;;;;;14.30;5.55;;;;;;;20.81;66.06;99178.03;1695656;83;21070;-71
2021/08/19 09:29:26;;;;;;;9.53;4.97;;;;;;;20.77;68.02;99183.63;1712793;83;21084;-72
2021/08/19 09:32:17;;;;;;;7.28;4.83;;;;;;;20.93;67.75;99186.84;1713076;81;26060;-71
2021/08/19 09:34:48;;;;;;;7.37;4.97;;;;;;;21.15;65.45;99182.72;1727441;81;21805;-73
2021/08/19 09:37:25;;;;;;;11.68;5.03;;;;;;;21.24;64.51;99188.16;1725783;81;21578;-73
2021/08/19 09:39:59;;;;;;;10.88;4.70;;;;;;;21.28;66.15;99185.37;1723734;81;21033;-73
2021/08/19 09:42:45;;;;;;;10.90;5.12;;;;;;;21.69;63.83;99181.00;1720417;82;21583;-71
2021/08/19 09:45:23;;;;;;;7.90;4.40;;;;;;;22.04;63.57;99173.80;1705504;83;20917;-73
2021/08/19 09:48:11;;;;;;;7.83;3.85;;;;;;;22.55;61.31;99173.25;1713339;83;21009;-76
2021/08/19 09:50:38;;;;;;;5.25;3.90;;;;;;;22.96;54.74;99172.70;1719845;83;21439;-76
2021/08/19 09:53:22;;;;;;;7.17;3.60;;;;;;;22.96;57.04;99169.91;1719913;83;21519;-73
2021/08/19 09:55:50;;;;;;;5.47;3.20;;;;;;;23.02;57.20;99174.67;1719841;83;20889;-74
2021/08/19 09:58:32;;;;;;;8.60;3.85;;;;;;;23.13;55.15;99177.98;1719994;83;20964;-76
2021/08/19 10:00:59;;;;;;;;;;;;;;;23.05;55.93;99178.05;1723001;83;21114;-77
2021/08/19 10:03:26;;;;;;;5.50;3.80;;;;;;;23.01;55.02;99178.67;1723967;82;20072;-79
2021/08/19 10:05:54;;;;;;;6.78;4.03;;;;;;;22.92;53.99;99174.73;1728000;83;21021;-72
2021/08/19 10:08:21;;;;;;;6.55;4.20;;;;;;;22.78;53.97;99182.55;1685811;85;21026;-72
2021/08/19 10:10:52;;;;;;;6.15;3.87;;;;;;;22.59;53.76;99181.62;1728782;83;20899;-75
2021/08/19 10:13:20;;;;;;;4.85;3.92;;;;;;;22.46;56.14;99182.70;1685959;85;20932;-69
2021/08/19 10:15:49;;;;;;;4.47;3.12;;;;;;;22.44;56.30;99174.52;1685644;85;21439;-76
2021/08/19 10:18:26;;;;;;;7.78;4.37;;;;;;;22.51;54.40;99187.88;1725748;83;21502;-81
2021/08/19 10:20:59;;;;;;;8.38;4.67;;;;;;;22.54;55.50;99185.64;1686216;84;21011;-79
2021/08/19 10:23:25;;;;;;;7.00;4.17;;;;;;;22.58;53.33;99178.03;1718965;83;20950;-76
2021/08/19 10:26:12;;;;;;;7.45;4.00;;;;;;;22.58;53.75;99171.64;1715710;81;21127;-75
2021/08/19 10:28:54;;;;;;;7.60;4.03;;;;;;;22.50;54.33;99172.89;1694920;83;20989;-76
2021/08/19 10:31:44;;;;;;;9.55;4.72;;;;;;;22.39;53.13;99172.92;1697788;83;21361;-76
2021/08/19 10:34:15;;;;;;;9.20;4.90;;;;;;;22.29;54.44;99174.55;1705893;83;20980;-76
2021/08/19 10:36:49;;;;;;;8.38;5.03;;;;;;;22.34;54.79;99167.14;1709602;83;21067;-76
2021/08/19 10:39:25;;;;;;;8.23;4.40;;;;;;;22.54;56.42;99166.06;1709089;83;21094;-76
2021/08/19 10:41:53;;;;;;;8.08;5.03;;;;;;;22.86;53.71;99165.16;1698671;83;21021;-76
2021/08/19 10:44:39;;;;;;;7.83;4.85;;;;;;;23.09;53.94;99175.23;1869016;76;23416;-75
2021/08/19 10:47:07;;;;;;;8.15;4.95;;;;;;;23.02;51.62;99177.47;1846531;77;20946;-75
2021/08/19 10:49:37;;;;;;;6.28;4.60;;;;;;;22.83;52.56;99177.17;1845422;77;21129;-74
2021/08/19 10:52:15;;;;;;;9.23;4.65;;;;;;;22.70;51.90;99171.99;1846873;76;20976;-78
2021/08/19 10:54:46;;;;;;;9.30;5.15;;;;;;;22.52;52.55;99181.68;1844389;76;20966;-78
2021/08/19 10:57:30;;;;;;;9.45;5.25;;;;;;;22.35;53.78;99178.53;1844395;76;20914;-77
2021/08/19 11:00:06;;;;;;;8.28;4.95;;;;;;;22.27;52.65;99171.36;1838286;77;21702;-76
2021/08/19 11:02:46;;;;;;;6.67;4.45;;;;;;;22.21;54.54;99174.37;1831647;77;21818;-78
2021/08/19 11:05:29;;;;;;;9.88;4.97;;;;;;;22.14;54.36;99160.41;1839182;77;21529;-78
2021/08/19 11:08:02;;;;;;;10.32;5.10;;;;;;;22.15;54.57;99160.60;1835107;77;20884;-77
2021/08/19 11:10:32;;;;;;;8.40;4.83;;;;;;;22.04;54.56;99160.62;1855113;77;20930;-74
2021/08/19 11:13:05;;;;;;;10.53;4.87;;;;;;;22.01;56.38;99158.62;1859263;77;20883;-75
2021/08/19 11:15:32;;;;;;;8.95;4.90;;;;;;;22.01;56.38;99158.62;1823832;78;21064;-76
2021/08/19 11:17:59;;;;;;;7.33;4.95;;;;;;;22.03;56.27;99155.43;1789928;79;21435;-75
2021/08/19 11:20:33;;;;;;;8.85;4.78;;;;;;;21.93;53.39;99150.66;1795292;80;20888;-76
2021/08/19 11:23:11;;;;;;;10.70;4.87;;;;;;;21.78;54.17;99149.87;1794597;80;21537;-77
2021/08/19 11:25:45;;;;;;;6.87;4.80;;;;;;;21.70;56.34;99149.67;1769969;81;21006;-77
2021/08/19 11:28:15;;;;;;;7.20;5.08;;;;;;;21.67;55.54;99147.67;1788936;79;21088;-78
2021/08/19 11:30:49;;;;;;;11.10;5.20;;;;;;;21.67;55.88;99145.69;1789455;79;21048;-76
2021/08/19 11:33:23;;;;;;;6.22;5.03;;;;;;;21.64;54.96;99145.09;1784936;79;20931;-78
2021/08/19 11:35:59;;;;;;;6.58;4.78;;;;;;;21.57;55.91;99131.13;1794884;79;21031;-82
2021/08/19 11:38:27;;;;;;;7.12;4.58;;;;;;;21.52;54.87;99128.73;1789301;79;20932;-80
2021/08/19 11:40:56;;;;;;;8.08;5.08;;;;;;;21.48;54.52;99137.70;1788167;79;21090;-78
2021/08/19 11:43:31;;;;;;;7.28;5.10;;;;;;;21.45;54.44;99140.48;1789544;79;20922;-79